sensor_id;sensor_type;location;lat;lon;timestamp;temperature;humidity
16154;DHT22;8182;55.648;13.208;2023-05-10T00:00:48;11.30;99.90
16154;DHT22;8182;55.648;13.208;2023-05-10T00:03:18;11.30;99.90
16154;DHT22;8182;55.648;13.208;2023-05-10T00:05:49;11.40;99.90
16154;DHT22;8182;55.648;13.208;2023-05-10T00:08:16;11.40;99.90
16154;DHT22;8182;55.648;13.208;2023-05-10T00:10:44;11.40;99.90
16154;DHT22;8182;55.648;13.208;2023-05-10T00:13:16;11.40;99.90
16154;DHT22;8182;55.648;13.208;2023-05-10T00:15:48;11.40;99.90
16154;DHT22;8182;55.648;13.208;2023-05-10T00:18:18;11.40;99.90
16154;DHT22;8182;55.648;13.208;2023-05-10T00:20:46;11.40;99.90
16154;DHT22;8182;55.648;13.208;2023-05-10T00:23:21;11.40;99.90
16154;DHT22;8182;55.648;13.208;2023-05-10T00:25:48;11.40;99.90
16154;DHT22;8182;55.648;13.208;2023-05-10T00:28:27;11.40;99.90
16154;DHT22;8182;55.648;13.208;2023-05-10T00:30:54;11.40;99.90
16154;DHT22;8182;55.648;13.208;2023-05-10T00:33:22;11.40;99.90
16154;DHT22;8182;55.648;13.208;2023-05-10T00:35:49;11.40;99.90
16154;DHT22;8182;55.648;13.208;2023-05-10T00:38:17;11.40;99.90
16154;DHT22;8182;55.648;13.208;2023-05-10T00:40:50;11.40;99.90
16154;DHT22;8182;55.648;13.208;2023-05-10T00:43:25;11.40;99.90
16154;DHT22;8182;55.648;13.208;2023-05-10T00:46:05;11.40;99.90
16154;DHT22;8182;55.648;13.208;2023-05-10T00:48:46;11.40;99.90
16154;DHT22;8182;55.648;13.208;2023-05-10T00:51:13;11.40;99.90
16154;DHT22;8182;55.648;13.208;2023-05-10T00:53:40;11.40;99.90
16154;DHT22;8182;55.648;13.208;2023-05-10T00:56:09;11.40;99.90
16154;DHT22;8182;55.648;13.208;2023-05-10T00:58:41;11.40;99.90
16154;DHT22;8182;55.648;13.208;2023-05-10T01:01:14;11.30;99.90
16154;DHT22;8182;55.648;13.208;2023-05-10T01:03:42;11.40;99.90
16154;DHT22;8182;55.648;13.208;2023-05-10T01:06:10;11.30;99.90
16154;DHT22;8182;55.648;13.208;2023-05-10T01:08:41;11.40;99.90
16154;DHT22;8182;55.648;13.208;2023-05-10T01:11:10;11.40;99.90
16154;DHT22;8182;55.648;13.208;2023-05-10T01:13:42;11.30;99.90
16154;DHT22;8182;55.648;13.208;2023-05-10T01:16:11;11.40;99.90
16154;DHT22;8182;55.648;13.208;2023-05-10T01:18:40;11.30;99.90
16154;DHT22;8182;55.648;13.208;2023-05-10T01:21:18;11.30;99.90
16154;DHT22;8182;55.648;13.208;2023-05-10T01:27:08;11.30;99.90
16154;DHT22;8182;55.648;13.208;2023-05-10T01:30:14;11.30;99.90
16154;DHT22;8182;55.648;13.208;2023-05-10T01:32:51;11.20;99.90
16154;DHT22;8182;55.648;13.208;2023-05-10T01:35:28;11.20;99.90
16154;DHT22;8182;55.648;13.208;2023-05-10T01:38:04;11.20;99.90
16154;DHT22;8182;55.648;13.208;2023-05-10T01:40:39;11.20;99.90
16154;DHT22;8182;55.648;13.208;2023-05-10T01:43:16;11.20;99.90
16154;DHT22;8182;55.648;13.208;2023-05-10T01:45:50;11.10;99.90
16154;DHT22;8182;55.648;13.208;2023-05-10T01:48:20;11.10;99.90
16154;DHT22;8182;55.648;13.208;2023-05-10T01:50:48;11.10;99.90
16154;DHT22;8182;55.648;13.208;2023-05-10T01:53:24;11.10;99.90
16154;DHT22;8182;55.648;13.208;2023-05-10T01:56:05;11.10;99.90
16154;DHT22;8182;55.648;13.208;2023-05-10T01:59:16;11.10;99.90
16154;DHT22;8182;55.648;13.208;2023-05-10T02:01:39;11.00;99.90
16154;DHT22;8182;55.648;13.208;2023-05-10T02:04:17;11.00;99.90
16154;DHT22;8182;55.648;13.208;2023-05-10T02:06:48;11.00;99.90
16154;DHT22;8182;55.648;13.208;2023-05-10T02:09:26;11.00;99.90
16154;DHT22;8182;55.648;13.208;2023-05-10T02:11:56;11.00;99.90
16154;DHT22;8182;55.648;13.208;2023-05-10T02:14:29;10.90;99.90
16154;DHT22;8182;55.648;13.208;2023-05-10T02:16:58;10.90;99.90
16154;DHT22;8182;55.648;13.208;2023-05-10T02:19:30;10.90;99.90
16154;DHT22;8182;55.648;13.208;2023-05-10T02:22:00;10.90;99.90
16154;DHT22;8182;55.648;13.208;2023-05-10T02:24:28;10.90;99.90
16154;DHT22;8182;55.648;13.208;2023-05-10T02:26:57;10.90;99.90
16154;DHT22;8182;55.648;13.208;2023-05-10T02:29:26;10.80;99.90
16154;DHT22;8182;55.648;13.208;2023-05-10T02:31:55;10.90;99.90
16154;DHT22;8182;55.648;13.208;2023-05-10T02:34:26;10.80;99.90
16154;DHT22;8182;55.648;13.208;2023-05-10T02:36:56;10.80;99.90
16154;DHT22;8182;55.648;13.208;2023-05-10T02:39:25;10.80;99.90
16154;DHT22;8182;55.648;13.208;2023-05-10T02:41:55;10.80;99.90
16154;DHT22;8182;55.648;13.208;2023-05-10T02:44:25;10.80;99.90
16154;DHT22;8182;55.648;13.208;2023-05-10T02:46:54;10.80;99.90
16154;DHT22;8182;55.648;13.208;2023-05-10T02:49:25;10.80;99.90
16154;DHT22;8182;55.648;13.208;2023-05-10T02:52:00;10.70;99.90
16154;DHT22;8182;55.648;13.208;2023-05-10T02:54:33;10.80;99.90
16154;DHT22;8182;55.648;13.208;2023-05-10T02:57:04;10.70;99.90
16154;DHT22;8182;55.648;13.208;2023-05-10T02:59:32;10.70;99.90
16154;DHT22;8182;55.648;13.208;2023-05-10T03:01:59;10.70;99.90
16154;DHT22;8182;55.648;13.208;2023-05-10T03:04:27;10.70;99.90
16154;DHT22;8182;55.648;13.208;2023-05-10T03:06:58;10.70;99.90
16154;DHT22;8182;55.648;13.208;2023-05-10T03:09:25;10.70;99.90
16154;DHT22;8182;55.648;13.208;2023-05-10T03:12:00;10.70;99.90
16154;DHT22;8182;55.648;13.208;2023-05-10T03:14:43;10.70;99.90
16154;DHT22;8182;55.648;13.208;2023-05-10T03:17:17;10.70;99.90
16154;DHT22;8182;55.648;13.208;2023-05-10T03:19:49;10.70;99.90
16154;DHT22;8182;55.648;13.208;2023-05-10T03:22:23;10.70;99.90
16154;DHT22;8182;55.648;13.208;2023-05-10T03:24:55;10.70;99.90
16154;DHT22;8182;55.648;13.208;2023-05-10T03:27:27;10.70;99.90
16154;DHT22;8182;55.648;13.208;2023-05-10T03:29:56;10.70;99.90
16154;DHT22;8182;55.648;13.208;2023-05-10T03:32:24;10.70;99.90
16154;DHT22;8182;55.648;13.208;2023-05-10T03:34:53;10.70;99.90
16154;DHT22;8182;55.648;13.208;2023-05-10T03:37:22;10.70;99.90
16154;DHT22;8182;55.648;13.208;2023-05-10T03:39:50;10.70;99.90
16154;DHT22;8182;55.648;13.208;2023-05-10T03:42:18;10.70;99.90
16154;DHT22;8182;55.648;13.208;2023-05-10T03:44:56;10.70;99.90
16154;DHT22;8182;55.648;13.208;2023-05-10T03:47:23;10.70;99.90
16154;DHT22;8182;55.648;13.208;2023-05-10T03:49:51;10.80;99.90
16154;DHT22;8182;55.648;13.208;2023-05-10T03:52:18;10.70;99.90
16154;DHT22;8182;55.648;13.208;2023-05-10T03:54:47;10.70;99.90
16154;DHT22;8182;55.648;13.208;2023-05-10T03:57:28;10.70;99.90
16154;DHT22;8182;55.648;13.208;2023-05-10T03:59:55;10.80;99.90
16154;DHT22;8182;55.648;13.208;2023-05-10T04:02:23;10.80;99.90
16154;DHT22;8182;55.648;13.208;2023-05-10T04:04:50;10.80;99.90
16154;DHT22;8182;55.648;13.208;2023-05-10T04:07:17;10.80;99.90
16154;DHT22;8182;55.648;13.208;2023-05-10T04:09:46;10.80;99.90
16154;DHT22;8182;55.648;13.208;2023-05-10T04:12:13;10.80;99.90
16154;DHT22;8182;55.648;13.208;2023-05-10T04:14:40;10.80;99.90
16154;DHT22;8182;55.648;13.208;2023-05-10T04:17:10;10.90;99.90
16154;DHT22;8182;55.648;13.208;2023-05-10T04:19:40;10.90;99.90
16154;DHT22;8182;55.648;13.208;2023-05-10T04:22:07;10.90;99.90
16154;DHT22;8182;55.648;13.208;2023-05-10T04:24:38;10.90;99.90
16154;DHT22;8182;55.648;13.208;2023-05-10T04:27:07;11.00;99.90
16154;DHT22;8182;55.648;13.208;2023-05-10T04:29:41;11.00;99.90
16154;DHT22;8182;55.648;13.208;2023-05-10T04:32:09;11.00;99.90
16154;DHT22;8182;55.648;13.208;2023-05-10T04:34:36;11.00;99.90
16154;DHT22;8182;55.648;13.208;2023-05-10T04:37:16;11.10;99.90
16154;DHT22;8182;55.648;13.208;2023-05-10T04:39:44;11.10;99.90
16154;DHT22;8182;55.648;13.208;2023-05-10T04:42:17;11.10;99.90
16154;DHT22;8182;55.648;13.208;2023-05-10T04:44:51;11.20;99.90
16154;DHT22;8182;55.648;13.208;2023-05-10T04:47:19;11.20;99.90
16154;DHT22;8182;55.648;13.208;2023-05-10T04:49:47;11.30;99.90
16154;DHT22;8182;55.648;13.208;2023-05-10T04:52:18;11.30;99.90
16154;DHT22;8182;55.648;13.208;2023-05-10T04:54:45;11.30;99.90
16154;DHT22;8182;55.648;13.208;2023-05-10T04:57:13;11.30;99.90
16154;DHT22;8182;55.648;13.208;2023-05-10T04:59:41;11.30;99.90
16154;DHT22;8182;55.648;13.208;2023-05-10T05:02:15;11.40;99.90
16154;DHT22;8182;55.648;13.208;2023-05-10T05:04:43;11.40;99.90
16154;DHT22;8182;55.648;13.208;2023-05-10T05:07:14;11.50;99.90
16154;DHT22;8182;55.648;13.208;2023-05-10T05:09:45;11.50;99.90
16154;DHT22;8182;55.648;13.208;2023-05-10T05:12:12;11.60;99.90
16154;DHT22;8182;55.648;13.208;2023-05-10T05:14:41;11.60;99.90
16154;DHT22;8182;55.648;13.208;2023-05-10T05:17:09;11.70;99.90
16154;DHT22;8182;55.648;13.208;2023-05-10T05:19:36;11.80;99.90
16154;DHT22;8182;55.648;13.208;2023-05-10T05:22:06;11.90;99.90
16154;DHT22;8182;55.648;13.208;2023-05-10T05:24:35;12.00;99.90
16154;DHT22;8182;55.648;13.208;2023-05-10T05:27:03;12.10;99.90
16154;DHT22;8182;55.648;13.208;2023-05-10T05:29:30;12.20;99.90
16154;DHT22;8182;55.648;13.208;2023-05-10T05:32:01;12.30;99.90
16154;DHT22;8182;55.648;13.208;2023-05-10T05:34:44;12.50;99.90
16154;DHT22;8182;55.648;13.208;2023-05-10T05:37:13;12.60;99.90
16154;DHT22;8182;55.648;13.208;2023-05-10T05:39:47;12.70;99.90
16154;DHT22;8182;55.648;13.208;2023-05-10T05:42:15;12.80;99.90
16154;DHT22;8182;55.648;13.208;2023-05-10T05:44:43;12.80;99.90
16154;DHT22;8182;55.648;13.208;2023-05-10T05:47:12;13.00;99.90
16154;DHT22;8182;55.648;13.208;2023-05-10T05:49:40;13.00;99.90
16154;DHT22;8182;55.648;13.208;2023-05-10T05:52:07;13.10;99.90
16154;DHT22;8182;55.648;13.208;2023-05-10T05:54:42;13.20;99.90
16154;DHT22;8182;55.648;13.208;2023-05-10T05:57:29;13.40;99.90
16154;DHT22;8182;55.648;13.208;2023-05-10T05:59:57;13.50;99.90
16154;DHT22;8182;55.648;13.208;2023-05-10T06:02:28;13.70;99.90
16154;DHT22;8182;55.648;13.208;2023-05-10T06:07:48;13.80;99.90
16154;DHT22;8182;55.648;13.208;2023-05-10T06:10:17;13.80;99.90
16154;DHT22;8182;55.648;13.208;2023-05-10T06:12:51;13.90;99.90
16154;DHT22;8182;55.648;13.208;2023-05-10T06:15:28;13.90;99.90
16154;DHT22;8182;55.648;13.208;2023-05-10T06:17:57;13.90;99.90
16154;DHT22;8182;55.648;13.208;2023-05-10T06:20:30;14.20;99.90
16154;DHT22;8182;55.648;13.208;2023-05-10T06:23:10;14.40;99.90
16154;DHT22;8182;55.648;13.208;2023-05-10T06:25:38;14.50;99.90
16154;DHT22;8182;55.648;13.208;2023-05-10T06:28:06;14.50;99.90
16154;DHT22;8182;55.648;13.208;2023-05-10T06:30:36;14.20;99.90
16154;DHT22;8182;55.648;13.208;2023-05-10T06:33:13;14.30;99.90
16154;DHT22;8182;55.648;13.208;2023-05-10T06:35:42;14.40;99.90
16154;DHT22;8182;55.648;13.208;2023-05-10T06:38:10;14.30;99.90
16154;DHT22;8182;55.648;13.208;2023-05-10T06:40:46;14.50;99.90
16154;DHT22;8182;55.648;13.208;2023-05-10T06:43:14;14.50;99.90
16154;DHT22;8182;55.648;13.208;2023-05-10T06:45:44;14.50;99.90
16154;DHT22;8182;55.648;13.208;2023-05-10T06:48:12;14.50;99.90
16154;DHT22;8182;55.648;13.208;2023-05-10T06:50:39;14.60;99.90
16154;DHT22;8182;55.648;13.208;2023-05-10T06:53:07;14.60;99.90
16154;DHT22;8182;55.648;13.208;2023-05-10T06:55:36;14.80;99.90
16154;DHT22;8182;55.648;13.208;2023-05-10T06:58:13;14.70;99.90
16154;DHT22;8182;55.648;13.208;2023-05-10T07:00:42;14.90;99.90
16154;DHT22;8182;55.648;13.208;2023-05-10T07:03:12;14.90;99.90
16154;DHT22;8182;55.648;13.208;2023-05-10T07:05:56;14.90;99.90
16154;DHT22;8182;55.648;13.208;2023-05-10T07:08:29;14.90;99.90
16154;DHT22;8182;55.648;13.208;2023-05-10T07:11:00;15.00;99.90
16154;DHT22;8182;55.648;13.208;2023-05-10T07:13:41;15.00;99.90
16154;DHT22;8182;55.648;13.208;2023-05-10T07:16:15;15.20;99.90
16154;DHT22;8182;55.648;13.208;2023-05-10T07:18:51;15.30;99.90
16154;DHT22;8182;55.648;13.208;2023-05-10T07:21:20;15.30;99.90
16154;DHT22;8182;55.648;13.208;2023-05-10T07:23:50;15.40;99.90
16154;DHT22;8182;55.648;13.208;2023-05-10T07:26:17;15.40;99.90
16154;DHT22;8182;55.648;13.208;2023-05-10T07:28:45;15.60;99.90
16154;DHT22;8182;55.648;13.208;2023-05-10T07:31:15;15.80;99.90
16154;DHT22;8182;55.648;13.208;2023-05-10T07:33:42;15.60;99.90
16154;DHT22;8182;55.648;13.208;2023-05-10T07:36:17;15.80;99.90
16154;DHT22;8182;55.648;13.208;2023-05-10T07:38:45;15.60;99.90
16154;DHT22;8182;55.648;13.208;2023-05-10T07:41:12;15.60;99.90
16154;DHT22;8182;55.648;13.208;2023-05-10T07:43:40;16.10;99.90
16154;DHT22;8182;55.648;13.208;2023-05-10T07:46:17;15.90;99.90
16154;DHT22;8182;55.648;13.208;2023-05-10T07:48:45;16.00;99.90
16154;DHT22;8182;55.648;13.208;2023-05-10T07:51:18;15.80;99.90
16154;DHT22;8182;55.648;13.208;2023-05-10T07:53:45;16.20;99.90
16154;DHT22;8182;55.648;13.208;2023-05-10T07:56:21;16.10;99.90
16154;DHT22;8182;55.648;13.208;2023-05-10T07:58:49;15.90;99.90
16154;DHT22;8182;55.648;13.208;2023-05-10T08:01:20;16.10;99.90
16154;DHT22;8182;55.648;13.208;2023-05-10T08:03:48;16.20;99.90
16154;DHT22;8182;55.648;13.208;2023-05-10T08:06:19;16.30;99.90
16154;DHT22;8182;55.648;13.208;2023-05-10T08:08:48;16.60;99.90
16154;DHT22;8182;55.648;13.208;2023-05-10T08:11:24;16.70;99.90
16154;DHT22;8182;55.648;13.208;2023-05-10T08:13:54;17.00;99.90
16154;DHT22;8182;55.648;13.208;2023-05-10T08:16:27;17.30;99.90
16154;DHT22;8182;55.648;13.208;2023-05-10T08:18:58;17.40;99.90
16154;DHT22;8182;55.648;13.208;2023-05-10T08:21:28;16.90;99.90
16154;DHT22;8182;55.648;13.208;2023-05-10T08:23:57;17.10;99.90
16154;DHT22;8182;55.648;13.208;2023-05-10T08:26:27;16.90;99.90
16154;DHT22;8182;55.648;13.208;2023-05-10T08:28:55;17.20;99.90
16154;DHT22;8182;55.648;13.208;2023-05-10T08:31:25;17.20;99.90
16154;DHT22;8182;55.648;13.208;2023-05-10T08:34:04;17.10;99.90
16154;DHT22;8182;55.648;13.208;2023-05-10T08:36:34;17.20;99.90
16154;DHT22;8182;55.648;13.208;2023-05-10T08:39:02;17.30;99.90
16154;DHT22;8182;55.648;13.208;2023-05-10T08:41:34;17.60;99.90
16154;DHT22;8182;55.648;13.208;2023-05-10T08:44:18;17.50;99.90
16154;DHT22;8182;55.648;13.208;2023-05-10T08:46:53;17.40;99.90
16154;DHT22;8182;55.648;13.208;2023-05-10T08:49:26;18.00;99.90
16154;DHT22;8182;55.648;13.208;2023-05-10T08:52:11;18.30;99.90
16154;DHT22;8182;55.648;13.208;2023-05-10T08:54:50;18.20;99.90
16154;DHT22;8182;55.648;13.208;2023-05-10T08:57:19;18.00;99.90
16154;DHT22;8182;55.648;13.208;2023-05-10T08:59:46;18.10;99.90
16154;DHT22;8182;55.648;13.208;2023-05-10T09:02:24;18.10;99.90
16154;DHT22;8182;55.648;13.208;2023-05-10T09:04:52;18.20;99.90
16154;DHT22;8182;55.648;13.208;2023-05-10T09:07:28;18.60;99.90
16154;DHT22;8182;55.648;13.208;2023-05-10T09:09:56;18.40;99.90
16154;DHT22;8182;55.648;13.208;2023-05-10T09:12:29;18.50;99.90
16154;DHT22;8182;55.648;13.208;2023-05-10T09:15:01;19.00;99.90
16154;DHT22;8182;55.648;13.208;2023-05-10T09:17:36;19.40;99.90
16154;DHT22;8182;55.648;13.208;2023-05-10T09:20:06;19.60;99.90
16154;DHT22;8182;55.648;13.208;2023-05-10T09:22:35;19.60;99.90
16154;DHT22;8182;55.648;13.208;2023-05-10T09:25:06;19.30;99.90
16154;DHT22;8182;55.648;13.208;2023-05-10T09:27:34;19.30;99.90
16154;DHT22;8182;55.648;13.208;2023-05-10T09:30:04;19.70;99.90
16154;DHT22;8182;55.648;13.208;2023-05-10T09:32:40;19.90;99.90
16154;DHT22;8182;55.648;13.208;2023-05-10T09:35:09;19.70;99.90
16154;DHT22;8182;55.648;13.208;2023-05-10T09:37:42;19.10;99.90
16154;DHT22;8182;55.648;13.208;2023-05-10T09:40:13;18.90;99.90
16154;DHT22;8182;55.648;13.208;2023-05-10T09:43:03;18.90;99.90
16154;DHT22;8182;55.648;13.208;2023-05-10T09:45:35;19.00;99.90
16154;DHT22;8182;55.648;13.208;2023-05-10T09:48:12;19.30;99.90
16154;DHT22;8182;55.648;13.208;2023-05-10T09:50:45;19.50;99.90
16154;DHT22;8182;55.648;13.208;2023-05-10T09:53:29;19.30;99.90
16154;DHT22;8182;55.648;13.208;2023-05-10T09:55:57;20.00;99.90
16154;DHT22;8182;55.648;13.208;2023-05-10T09:58:25;19.30;99.90
16154;DHT22;8182;55.648;13.208;2023-05-10T10:00:53;19.60;99.90
16154;DHT22;8182;55.648;13.208;2023-05-10T10:03:21;19.40;99.90
16154;DHT22;8182;55.648;13.208;2023-05-10T10:05:49;19.30;99.90
16154;DHT22;8182;55.648;13.208;2023-05-10T10:08:23;19.40;99.90
16154;DHT22;8182;55.648;13.208;2023-05-10T10:10:52;18.90;99.90
16154;DHT22;8182;55.648;13.208;2023-05-10T10:13:19;19.80;99.90
16154;DHT22;8182;55.648;13.208;2023-05-10T10:15:53;19.80;99.90
16154;DHT22;8182;55.648;13.208;2023-05-10T10:18:22;19.70;99.90
16154;DHT22;8182;55.648;13.208;2023-05-10T10:20:54;20.10;99.90
16154;DHT22;8182;55.648;13.208;2023-05-10T10:23:27;20.00;99.90
16154;DHT22;8182;55.648;13.208;2023-05-10T10:25:57;19.70;99.90
16154;DHT22;8182;55.648;13.208;2023-05-10T10:28:32;19.60;99.90
16154;DHT22;8182;55.648;13.208;2023-05-10T10:31:15;19.90;99.90
16154;DHT22;8182;55.648;13.208;2023-05-10T10:33:55;19.60;99.90
16154;DHT22;8182;55.648;13.208;2023-05-10T10:36:27;20.30;99.90
16154;DHT22;8182;55.648;13.208;2023-05-10T10:39:11;20.40;99.90
16154;DHT22;8182;55.648;13.208;2023-05-10T10:41:55;20.60;99.90
16154;DHT22;8182;55.648;13.208;2023-05-10T10:44:34;20.40;99.90
16154;DHT22;8182;55.648;13.208;2023-05-10T10:47:08;20.60;99.90
16154;DHT22;8182;55.648;13.208;2023-05-10T10:49:48;20.20;99.90
16154;DHT22;8182;55.648;13.208;2023-05-10T10:52:21;20.20;99.90
16154;DHT22;8182;55.648;13.208;2023-05-10T10:55:03;20.20;99.90
16154;DHT22;8182;55.648;13.208;2023-05-10T10:57:43;20.20;99.90
16154;DHT22;8182;55.648;13.208;2023-05-10T11:00:31;20.30;99.90
16154;DHT22;8182;55.648;13.208;2023-05-10T11:03:04;20.70;99.90
16154;DHT22;8182;55.648;13.208;2023-05-10T11:05:41;20.50;99.90
16154;DHT22;8182;55.648;13.208;2023-05-10T11:08:12;19.90;99.90
16154;DHT22;8182;55.648;13.208;2023-05-10T11:14:06;20.00;99.90
16154;DHT22;8182;55.648;13.208;2023-05-10T11:16:43;20.00;99.90
16154;DHT22;8182;55.648;13.208;2023-05-10T11:19:15;19.80;99.90
16154;DHT22;8182;55.648;13.208;2023-05-10T11:21:50;20.00;99.90
16154;DHT22;8182;55.648;13.208;2023-05-10T11:24:31;19.90;99.90
16154;DHT22;8182;55.648;13.208;2023-05-10T11:27:11;19.70;99.90
16154;DHT22;8182;55.648;13.208;2023-05-10T11:29:40;19.90;99.90
16154;DHT22;8182;55.648;13.208;2023-05-10T11:32:15;20.00;99.90
16154;DHT22;8182;55.648;13.208;2023-05-10T11:34:47;19.60;99.90
16154;DHT22;8182;55.648;13.208;2023-05-10T11:37:14;19.50;99.90
16154;DHT22;8182;55.648;13.208;2023-05-10T11:39:46;19.30;99.90
16154;DHT22;8182;55.648;13.208;2023-05-10T11:42:18;19.00;99.90
16154;DHT22;8182;55.648;13.208;2023-05-10T11:44:47;19.00;99.90
16154;DHT22;8182;55.648;13.208;2023-05-10T11:47:16;19.20;99.90
16154;DHT22;8182;55.648;13.208;2023-05-10T11:49:43;19.30;99.90
16154;DHT22;8182;55.648;13.208;2023-05-10T11:52:11;19.40;99.90
16154;DHT22;8182;55.648;13.208;2023-05-10T11:54:37;19.70;99.90
16154;DHT22;8182;55.648;13.208;2023-05-10T11:57:13;19.90;99.90
16154;DHT22;8182;55.648;13.208;2023-05-10T11:59:40;19.50;99.90
16154;DHT22;8182;55.648;13.208;2023-05-10T12:02:16;19.40;99.90
16154;DHT22;8182;55.648;13.208;2023-05-10T12:04:43;19.10;99.90
16154;DHT22;8182;55.648;13.208;2023-05-10T12:07:17;19.30;99.90
16154;DHT22;8182;55.648;13.208;2023-05-10T12:10:09;19.60;99.90
16154;DHT22;8182;55.648;13.208;2023-05-10T12:12:41;19.00;99.90
16154;DHT22;8182;55.648;13.208;2023-05-10T12:15:19;19.00;99.90
16154;DHT22;8182;55.648;13.208;2023-05-10T12:17:51;19.00;99.90
16154;DHT22;8182;55.648;13.208;2023-05-10T12:20:27;19.00;99.90
16154;DHT22;8182;55.648;13.208;2023-05-10T12:22:59;19.00;99.90
16154;DHT22;8182;55.648;13.208;2023-05-10T12:25:31;19.20;99.90
16154;DHT22;8182;55.648;13.208;2023-05-10T12:28:00;19.00;99.90
16154;DHT22;8182;55.648;13.208;2023-05-10T12:30:29;19.10;99.90
16154;DHT22;8182;55.648;13.208;2023-05-10T12:33:02;19.00;99.90
16154;DHT22;8182;55.648;13.208;2023-05-10T12:35:30;19.20;99.90
16154;DHT22;8182;55.648;13.208;2023-05-10T12:37:57;19.10;99.90
16154;DHT22;8182;55.648;13.208;2023-05-10T12:40:24;18.90;99.90
16154;DHT22;8182;55.648;13.208;2023-05-10T12:42:51;18.90;99.90
16154;DHT22;8182;55.648;13.208;2023-05-10T12:45:19;19.20;99.90
16154;DHT22;8182;55.648;13.208;2023-05-10T12:48:08;19.00;99.90
16154;DHT22;8182;55.648;13.208;2023-05-10T12:50:41;19.00;99.90
16154;DHT22;8182;55.648;13.208;2023-05-10T12:53:16;19.10;99.90
16154;DHT22;8182;55.648;13.208;2023-05-10T12:55:49;19.20;99.90
16154;DHT22;8182;55.648;13.208;2023-05-10T12:58:16;19.20;99.90
16154;DHT22;8182;55.648;13.208;2023-05-10T13:00:52;19.20;99.90
16154;DHT22;8182;55.648;13.208;2023-05-10T13:03:21;19.10;99.90
16154;DHT22;8182;55.648;13.208;2023-05-10T13:05:58;19.00;99.90
16154;DHT22;8182;55.648;13.208;2023-05-10T13:08:26;19.00;99.90
16154;DHT22;8182;55.648;13.208;2023-05-10T13:10:58;19.00;99.90
16154;DHT22;8182;55.648;13.208;2023-05-10T13:13:25;18.90;99.90
16154;DHT22;8182;55.648;13.208;2023-05-10T13:15:56;18.90;99.90
16154;DHT22;8182;55.648;13.208;2023-05-10T13:18:25;19.00;99.90
16154;DHT22;8182;55.648;13.208;2023-05-10T13:20:53;19.00;99.90
16154;DHT22;8182;55.648;13.208;2023-05-10T13:23:21;19.00;99.90
16154;DHT22;8182;55.648;13.208;2023-05-10T13:25:49;19.00;99.90
16154;DHT22;8182;55.648;13.208;2023-05-10T13:28:16;19.10;99.90
16154;DHT22;8182;55.648;13.208;2023-05-10T13:30:50;19.20;99.90
16154;DHT22;8182;55.648;13.208;2023-05-10T13:33:17;19.20;99.90
16154;DHT22;8182;55.648;13.208;2023-05-10T13:35:45;19.20;99.90
16154;DHT22;8182;55.648;13.208;2023-05-10T13:38:13;19.30;99.90
16154;DHT22;8182;55.648;13.208;2023-05-10T13:40:40;19.20;99.90
16154;DHT22;8182;55.648;13.208;2023-05-10T13:43:13;19.30;99.90
16154;DHT22;8182;55.648;13.208;2023-05-10T13:45:42;19.40;99.90
16154;DHT22;8182;55.648;13.208;2023-05-10T13:48:15;19.40;99.90
16154;DHT22;8182;55.648;13.208;2023-05-10T13:50:47;19.50;99.90
16154;DHT22;8182;55.648;13.208;2023-05-10T13:53:14;19.40;99.90
16154;DHT22;8182;55.648;13.208;2023-05-10T13:55:44;19.30;99.90
16154;DHT22;8182;55.648;13.208;2023-05-10T13:58:12;19.20;99.90
16154;DHT22;8182;55.648;13.208;2023-05-10T14:00:40;19.30;99.90
16154;DHT22;8182;55.648;13.208;2023-05-10T14:03:08;19.50;99.90
16154;DHT22;8182;55.648;13.208;2023-05-10T14:05:37;19.30;99.90
16154;DHT22;8182;55.648;13.208;2023-05-10T14:08:06;19.30;99.90
16154;DHT22;8182;55.648;13.208;2023-05-10T14:10:35;19.20;99.90
16154;DHT22;8182;55.648;13.208;2023-05-10T14:13:05;19.30;99.90
16154;DHT22;8182;55.648;13.208;2023-05-10T14:15:33;19.50;99.90
16154;DHT22;8182;55.648;13.208;2023-05-10T14:18:00;19.40;99.90
16154;DHT22;8182;55.648;13.208;2023-05-10T14:20:28;19.20;99.90
16154;DHT22;8182;55.648;13.208;2023-05-10T14:22:55;19.20;99.90
16154;DHT22;8182;55.648;13.208;2023-05-10T14:25:23;19.30;99.90
16154;DHT22;8182;55.648;13.208;2023-05-10T14:27:51;19.30;99.90
16154;DHT22;8182;55.648;13.208;2023-05-10T14:30:20;19.30;99.90
16154;DHT22;8182;55.648;13.208;2023-05-10T14:32:48;19.30;99.90
16154;DHT22;8182;55.648;13.208;2023-05-10T14:35:24;19.30;99.90
16154;DHT22;8182;55.648;13.208;2023-05-10T14:37:51;19.40;99.90
16154;DHT22;8182;55.648;13.208;2023-05-10T14:40:18;19.30;99.90
16154;DHT22;8182;55.648;13.208;2023-05-10T14:42:47;19.20;99.90
16154;DHT22;8182;55.648;13.208;2023-05-10T14:45:14;19.20;99.90
16154;DHT22;8182;55.648;13.208;2023-05-10T14:47:41;19.20;99.90
16154;DHT22;8182;55.648;13.208;2023-05-10T14:50:09;19.30;99.90
16154;DHT22;8182;55.648;13.208;2023-05-10T14:52:36;19.20;99.90
16154;DHT22;8182;55.648;13.208;2023-05-10T14:55:08;19.20;99.90
16154;DHT22;8182;55.648;13.208;2023-05-10T14:57:36;19.30;99.90
16154;DHT22;8182;55.648;13.208;2023-05-10T15:00:09;19.20;99.90
16154;DHT22;8182;55.648;13.208;2023-05-10T15:02:44;19.20;99.90
16154;DHT22;8182;55.648;13.208;2023-05-10T15:05:19;19.10;99.90
16154;DHT22;8182;55.648;13.208;2023-05-10T15:07:46;19.20;99.90
16154;DHT22;8182;55.648;13.208;2023-05-10T15:10:14;19.20;99.90
16154;DHT22;8182;55.648;13.208;2023-05-10T15:12:42;19.20;99.90
16154;DHT22;8182;55.648;13.208;2023-05-10T15:15:11;19.20;99.90
16154;DHT22;8182;55.648;13.208;2023-05-10T15:17:38;19.20;99.90
16154;DHT22;8182;55.648;13.208;2023-05-10T15:20:06;19.20;99.90
16154;DHT22;8182;55.648;13.208;2023-05-10T15:22:37;19.20;99.90
16154;DHT22;8182;55.648;13.208;2023-05-10T15:25:06;19.20;99.90
16154;DHT22;8182;55.648;13.208;2023-05-10T15:27:34;19.00;99.90
16154;DHT22;8182;55.648;13.208;2023-05-10T15:30:02;19.10;99.90
16154;DHT22;8182;55.648;13.208;2023-05-10T15:32:31;19.10;99.90
16154;DHT22;8182;55.648;13.208;2023-05-10T15:34:58;19.10;99.90
16154;DHT22;8182;55.648;13.208;2023-05-10T15:37:26;19.00;99.90
16154;DHT22;8182;55.648;13.208;2023-05-10T15:39:53;19.10;99.90
16154;DHT22;8182;55.648;13.208;2023-05-10T15:42:27;19.00;99.90
16154;DHT22;8182;55.648;13.208;2023-05-10T15:44:55;19.10;99.90
16154;DHT22;8182;55.648;13.208;2023-05-10T15:47:23;19.00;99.90
16154;DHT22;8182;55.648;13.208;2023-05-10T15:49:52;19.00;99.90
16154;DHT22;8182;55.648;13.208;2023-05-10T15:52:20;19.00;99.90
16154;DHT22;8182;55.648;13.208;2023-05-10T15:54:53;19.00;99.90
16154;DHT22;8182;55.648;13.208;2023-05-10T15:57:20;19.00;99.90
16154;DHT22;8182;55.648;13.208;2023-05-10T15:59:47;19.00;99.90
16154;DHT22;8182;55.648;13.208;2023-05-10T16:02:15;18.90;99.90
16154;DHT22;8182;55.648;13.208;2023-05-10T16:04:43;19.00;99.90